Aérodrome :
LOGIN :

S'inscrire | Disclaimer

   EN    FR    IT 

 










Légende :    VFR   VFR Marginal   IFR   IFR Intensif   IFR Très Intensif
Visi : 
Plafond : 
>= 8 km
>= 3000ft
5 à 8 km
1000 à 3000 ft
1500m à 5 km
500 à 1000 ft
800 à 1500m
200 à 500 ft
< 800m
< 200 ft
Symboles :   Orages  Brouillard  Fortes neiges  Fortes précipitations  Vent > 20 kt
SIGMETs :   Divers  Orages  Givrage  Turbulence  Onde Orograph.  Cendres Volcan.






- Altitude de l'aérodrome : 489 ft
- Code IATA : GDN


EPGD - Gdansk

DERNIER METAR :
  • 190300Z 22010KT 9999 FEW023 02/M00 Q1010

METARs EXPIRÉS :
  • 190230Z 22011KT CAVOK 03/M00 Q1010
  • 190200Z 23009KT CAVOK 03/M00 Q1010
  • 190130Z 23011KT CAVOK 03/M00 Q1011
  • 190100Z 24012KT CAVOK 03/00 Q1011
  • 190030Z 23012KT CAVOK 03/00 Q1011

TAF TAF EPGD
Valide du 19 à 00h jusqu'au 20 à 00h UTC


182330Z 1900/1924 22011KT CAVOK
BECMG 1903/1906 BKN012
TEMPO 1906/1913 22018G30KT
BECMG 1908/1911 BKN025
TEMPO 1913/1918 SHRA SCT008 BKN014
PROB40
TEMPO 1913/1918 3000 SHRA BKN008
TEMPO 1918/1924 4000 SHSNRA BKN006 BKN012CB



MET'MAP, la Météo Aéronautique d'un coup d'oeil ! - Copyright ORBIFLY Décembre 2007 - Disclaimer

ORBIFLY MET'MAP TEAM :

Programmation & Développement : Alexandra Zaïnal
Sur une idée originale de : Baudouin d'Aumeries
Assistance à la programmation : Marc-Olivier Méhu
Soutien technique & logistique : Manuel Goepfert

Contact : metmap@orbifly.com




SOURCES & CREDITS :

   NOAA